Time;durP1;ratioP1;P1;durP2;ratioP2;P2;SDS_P1;SDS_P2;PMS_P1;PMS_P2;Temp;Humidity;BMP_temperature;BMP_pressure;BME280_temperature;BME280_humidity;BME280_pressure;Samples;Min_cycle;Max_cycle;Signal;HPM_P1;HPM_P2
2022/12/11 00:00:11;;;;;;;33.50;20.73;;;6.30;1.00;;;;;;5033913;28;20053;-63
2022/12/11 00:02:36;;;;;;;33.37;19.73;;;6.30;1.00;;;;;;5033536;28;20037;-63
2022/12/11 00:05:02;;;;;;;27.97;17.80;;;6.30;1.00;;;;;;5015858;28;20037;-63
2022/12/11 00:07:28;;;;;;;30.67;19.70;;;6.30;1.00;;;;;;5028599;28;20037;-63
2022/12/11 00:09:53;;;;;;;31.40;18.17;;;6.30;1.00;;;;;;5033997;28;20037;-63
2022/12/11 00:12:19;;;;;;;34.90;20.10;;;6.20;1.00;;;;;;5033714;28;20057;-63
2022/12/11 00:14:45;;;;;;;33.00;19.17;;;6.30;1.00;;;;;;5015576;28;20377;-63
2022/12/11 00:17:13;;;;;;;29.80;18.23;;;6.30;1.00;;;;;;5024558;28;20030;-63
2022/12/11 00:19:39;;;;;;;34.07;20.40;;;6.20;1.00;;;;;;5029555;28;20071;-63
2022/12/11 00:22:04;;;;;;;29.30;18.47;;;6.20;1.00;;;;;;5025413;28;20034;-63
2022/12/11 00:24:30;;;;;;;29.37;18.37;;;6.20;1.00;;;;;;5026988;28;20483;-63
2022/12/11 00:26:56;;;;;;;28.47;19.23;;;6.20;1.00;;;;;;5033863;28;20392;-63
2022/12/11 00:29:21;;;;;;;24.63;16.80;;;6.10;1.00;;;;;;5033290;28;20388;-63
2022/12/11 00:31:47;;;;;;;27.73;17.50;;;6.20;1.00;;;;;;5032925;28;20025;-63
2022/12/11 00:34:14;;;;;;;22.30;15.90;;;6.20;1.00;;;;;;5033277;28;20033;-63
2022/12/11 00:36:39;;;;;;;23.10;17.07;;;6.10;1.00;;;;;;5025564;28;20178;-63
2022/12/11 00:39:05;;;;;;;24.33;15.80;;;6.10;1.00;;;;;;5021601;28;20065;-63
2022/12/11 00:41:31;;;;;;;21.20;15.20;;;6.10;1.00;;;;;;5033125;28;20104;-63
2022/12/11 00:43:57;;;;;;;24.70;15.23;;;6.10;1.00;;;;;;5033199;28;20055;-63
2022/12/11 00:46:22;;;;;;;23.67;15.30;;;6.10;1.00;;;;;;5027966;28;20516;-63
2022/12/11 00:48:49;;;;;;;20.57;14.47;;;6.10;1.00;;;;;;5033306;28;20332;-63
2022/12/11 00:51:15;;;;;;;20.63;15.00;;;6.10;1.00;;;;;;5032952;28;20521;-63
2022/12/11 00:53:41;;;;;;;20.60;14.13;;;6.10;1.00;;;;;;5032655;28;20050;-62
2022/12/11 00:56:12;;;;;;;20.13;13.90;;;6.00;1.00;;;;;;5033100;28;20037;-63
2022/12/11 00:58:38;;;;;;;20.53;14.03;;;6.00;1.00;;;;;;5032832;28;20030;-63
2022/12/11 01:01:06;;;;;;;21.23;14.37;;;5.90;1.00;;;;;;5023019;28;20030;-63
2022/12/11 01:03:31;;;;;;;21.83;14.50;;;5.90;1.00;;;;;;5032760;28;20037;-62
2022/12/11 01:05:57;;;;;;;17.10;13.13;;;5.90;1.00;;;;;;5032638;28;20075;-63
2022/12/11 01:08:23;;;;;;;18.90;13.40;;;5.90;1.00;;;;;;5032755;28;20037;-63
2022/12/11 01:10:48;;;;;;;17.17;12.93;;;5.90;1.00;;;;;;5031261;28;20100;-63
2022/12/11 01:13:14;;;;;;;17.40;12.50;;;5.80;1.00;;;;;;5032491;28;20029;-62
2022/12/11 01:15:42;;;;;;;17.07;12.80;;;5.90;1.00;;;;;;5018236;28;20044;-62
2022/12/11 01:18:10;;;;;;;17.57;12.63;;;5.90;1.00;;;;;;5032612;28;20484;-62
2022/12/11 01:20:38;;;;;;;15.53;11.93;;;5.90;1.00;;;;;;5030941;28;20056;-62
2022/12/11 01:23:04;;;;;;;16.03;11.87;;;5.90;1.00;;;;;;5018298;28;20028;-62
2022/12/11 01:25:32;;;;;;;17.37;12.57;;;5.90;1.00;;;;;;5032440;28;20112;-63
2022/12/11 01:27:57;;;;;;;17.13;12.17;;;5.80;1.00;;;;;;5017103;28;20037;-63
2022/12/11 01:30:24;;;;;;;16.50;12.53;;;5.80;1.00;;;;;;5032098;28;20360;-63
2022/12/11 01:32:50;;;;;;;17.50;11.73;;;5.80;1.00;;;;;;5028429;28;20447;-63
2022/12/11 01:35:16;;;;;;;15.23;11.17;;;5.90;1.00;;;;;;5031936;28;20057;-62
2022/12/11 01:37:42;;;;;;;14.90;11.07;;;5.80;1.00;;;;;;5031380;28;20029;-62
2022/12/11 01:40:10;;;;;;;15.37;11.30;;;5.70;1.00;;;;;;5031926;28;20108;-62
2022/12/11 01:42:36;;;;;;;15.30;11.23;;;5.80;1.00;;;;;;5022722;28;20037;-62
2022/12/11 01:45:20;;;;;;;14.27;10.60;;;5.70;1.00;;;;;;5030574;28;20025;-62
2022/12/11 01:47:51;;;;;;;15.77;12.20;;;5.70;1.00;;;;;;5015437;28;20025;-63
2022/12/11 01:50:17;;;;;;;18.40;12.77;;;5.70;1.00;;;;;;5012090;28;20026;-63
2022/12/11 01:52:45;;;;;;;18.07;12.83;;;5.70;1.00;;;;;;5030056;28;20365;-63
2022/12/11 01:55:12;;;;;;;14.43;11.53;;;5.50;1.00;;;;;;5019010;28;20077;-63
2022/12/11 01:57:41;;;;;;;15.37;11.53;;;5.60;1.00;;;;;;5019469;28;20022;-62
2022/12/11 02:00:08;;;;;;;18.73;12.90;;;5.60;1.00;;;;;;5017695;28;20476;-62
2022/12/11 02:02:34;;;;;;;19.07;12.97;;;5.60;1.00;;;;;;5023130;28;20021;-62
2022/12/11 02:05:01;;;;;;;20.13;13.87;;;5.60;1.00;;;;;;5019633;28;20041;-63
2022/12/11 02:07:33;;;;;;;19.17;13.63;;;5.50;1.00;;;;;;5029055;28;20025;-63
2022/12/11 02:09:58;;;;;;;19.87;13.43;;;5.60;1.00;;;;;;5031477;28;20034;-63
2022/12/11 02:12:27;;;;;;;18.83;14.07;;;5.50;1.00;;;;;;5031032;28;20407;-62
2022/12/11 02:15:05;;;;;;;20.73;14.40;;;5.60;1.00;;;;;;5028250;28;20042;-63
2022/12/11 02:17:40;;;;;;;20.47;13.83;;;5.50;1.00;;;;;;5017768;28;20022;-63
2022/12/11 02:20:28;;;;;;;21.50;14.30;;;5.50;1.00;;;;;;5028585;28;20018;-63
2022/12/11 02:23:11;;;;;;;22.97;15.00;;;5.40;1.00;;;;;;5015603;28;20034;-62
2022/12/11 02:26:02;;;;;;;16.87;13.33;;;5.40;1.00;;;;;;5017366;28;20024;-63
2022/12/11 02:28:45;;;;;;;25.20;15.10;;;5.50;1.00;;;;;;5031677;28;20029;-63
2022/12/11 02:31:28;;;;;;;21.00;13.57;;;5.40;1.00;;;;;;5014313;28;20026;-63
2022/12/11 02:33:59;;;;;;;20.07;14.60;;;5.40;1.00;;;;;;5031581;28;20105;-63
2022/12/11 02:40:18;;;;;;;19.07;13.97;;;5.50;1.00;;;;;;5027339;28;20114;-63
2022/12/11 02:42:46;;;;;;;21.33;14.83;;;5.50;1.00;;;;;;5008800;28;20064;-63
2022/12/11 02:45:13;;;;;;;22.80;15.83;;;5.50;1.00;;;;;;5031555;28;20018;-62
2022/12/11 02:47:42;;;;;;;23.37;15.97;;;5.50;1.00;;;;;;5031652;28;20463;-62
2022/12/11 02:50:12;;;;;;;25.60;16.23;;;5.50;1.00;;;;;;5035327;28;20030;-62
2022/12/11 02:52:40;;;;;;;24.13;16.07;;;5.50;1.00;;;;;;5033850;28;20030;-62
2022/12/11 02:55:08;;;;;;;25.70;17.63;;;5.50;1.00;;;;;;5028820;28;20234;-63
2022/12/11 02:58:00;;;;;;;25.17;17.33;;;5.60;1.00;;;;;;5024245;28;20103;-63
2022/12/11 03:00:26;;;;;;;25.83;15.83;;;5.60;1.00;;;;;;5035262;28;20022;-63
2022/12/11 03:02:51;;;;;;;23.53;15.80;;;5.60;1.00;;;;;;5034985;28;20025;-63
2022/12/11 03:05:17;;;;;;;27.27;16.60;;;5.50;1.00;;;;;;5027627;28;20029;-63
2022/12/11 03:07:44;;;;;;;26.27;16.80;;;5.50;1.00;;;;;;5033728;28;20057;-63
2022/12/11 03:10:13;;;;;;;28.43;18.27;;;5.30;1.00;;;;;;5034946;28;20048;-63
2022/12/11 03:12:42;;;;;;;29.83;18.90;;;5.50;1.00;;;;;;5034714;28;20066;-63
2022/12/11 03:15:13;;;;;;;34.67;18.77;;;5.50;1.00;;;;;;5034888;28;20457;-62
2022/12/11 03:18:29;;;;;;;29.47;17.73;;;5.60;1.00;;;;;;5035578;28;20093;-63
2022/12/11 03:21:26;;;;;;;31.33;18.40;;;5.60;1.00;;;;;;5013738;28;20041;-62
2022/12/11 03:24:06;;;;;;;27.67;17.60;;;5.50;1.00;;;;;;5034252;28;20034;-62
2022/12/11 03:26:39;;;;;;;27.13;17.80;;;5.60;1.00;;;;;;5034781;28;20075;-63
2022/12/11 03:29:36;;;;;;;27.30;17.33;;;5.60;1.00;;;;;;5034443;28;20030;-63
2022/12/11 03:32:21;;;;;;;24.67;16.13;;;5.70;1.00;;;;;;5034030;28;20084;-62
2022/12/11 03:35:07;;;;;;;23.80;14.83;;;5.60;1.00;;;;;;5011757;28;20025;-62
2022/12/11 03:37:36;;;;;;;24.70;15.53;;;5.70;1.00;;;;;;5034528;28;20026;-62
2022/12/11 03:40:09;;;;;;;23.00;16.03;;;5.60;1.00;;;;;;5034604;28;20032;-62
2022/12/11 03:42:37;;;;;;;25.23;15.23;;;5.40;1.00;;;;;;5011001;28;20112;-62
2022/12/11 03:45:05;;;;;;;24.07;16.30;;;5.70;1.00;;;;;;5019855;28;20061;-62
2022/12/11 03:47:32;;;;;;;22.43;14.40;;;5.80;1.00;;;;;;5012677;28;20444;-62
2022/12/11 03:50:00;;;;;;;24.90;16.33;;;5.90;1.00;;;;;;5014229;28;20480;-63
2022/12/11 03:52:28;;;;;;;22.70;14.93;;;5.90;1.00;;;;;;5026996;28;20017;-63
2022/12/11 03:54:58;;;;;;;23.63;15.83;;;5.80;1.00;;;;;;5019834;28;20045;-62
2022/12/11 03:57:29;;;;;;;24.03;15.07;;;5.90;1.00;;;;;;5020250;28;20025;-63
2022/12/11 03:59:56;;;;;;;24.67;15.17;;;5.90;1.00;;;;;;5013499;28;20390;-63
2022/12/11 04:02:21;;;;;;;25.60;15.80;;;5.80;1.00;;;;;;5014526;28;20022;-63
2022/12/11 04:04:47;;;;;;;23.00;15.20;;;5.80;1.00;;;;;;5023721;28;20391;-63
2022/12/11 04:07:13;;;;;;;23.97;15.27;;;5.80;1.00;;;;;;5022225;28;20110;-63
2022/12/11 04:09:38;;;;;;;23.80;16.13;;;5.90;1.00;;;;;;5033668;28;20053;-63
2022/12/11 04:12:04;;;;;;;23.83;14.97;;;5.80;1.00;;;;;;5027887;28;20053;-63
2022/12/11 04:24:13;;;;;;;24.80;15.73;;;5.80;1.00;;;;;;5033736;28;20411;-62
2022/12/11 04:25:27;;;;;;;22.93;14.40;;;6.00;1.00;;;;;;5003551;28;20383;-62
2022/12/11 04:27:53;;;;;;;23.07;14.47;;;6.00;1.00;;;;;;5026713;28;20112;-63
2022/12/11 04:30:23;;;;;;;21.23;14.37;;;5.90;1.00;;;;;;5033394;28;20028;-62
2022/12/11 04:32:50;;;;;;;18.80;13.27;;;5.90;1.00;;;;;;5033448;28;20086;-63
2022/12/11 04:35:16;;;;;;;19.10;12.20;;;5.70;1.00;;;;;;5023162;28;20131;-62
2022/12/11 04:37:41;;;;;;;20.77;12.57;;;5.80;1.00;;;;;;5033241;28;20479;-63
2022/12/11 04:40:10;;;;;;;18.10;12.50;;;5.90;1.00;;;;;;5033060;28;20030;-63
2022/12/11 04:42:36;;;;;;;17.37;12.63;;;6.00;1.00;;;;;;5027968;28;20534;-62
2022/12/11 04:45:03;;;;;;;18.27;13.20;;;6.10;1.00;;;;;;5028127;28;20038;-62
2022/12/11 04:47:28;;;;;;;18.47;12.87;;;6.00;1.00;;;;;;5033359;28;20514;-62
2022/12/11 04:49:54;;;;;;;17.20;12.73;;;6.10;1.00;;;;;;5033177;28;20108;-62
2022/12/11 04:52:20;;;;;;;15.80;11.43;;;6.20;1.00;;;;;;5032653;28;20029;-63
2022/12/11 04:54:46;;;;;;;17.50;11.10;;;6.30;1.00;;;;;;5022158;28;20443;-63
2022/12/11 04:57:11;;;;;;;17.47;11.23;;;6.30;1.00;;;;;;5015162;28;20057;-63
2022/12/11 04:59:37;;;;;;;14.27;9.77;;;6.30;1.00;;;;;;5033002;28;20026;-62
2022/12/11 05:02:03;;;;;;;13.63;10.20;;;6.40;1.00;;;;;;5032702;28;20069;-63
2022/12/11 05:04:33;;;;;;;12.83;9.50;;;6.40;1.00;;;;;;5032745;28;20391;-62
2022/12/11 05:06:59;;;;;;;13.53;8.33;;;6.50;1.00;;;;;;5032775;28;20037;-63
2022/12/11 05:09:25;;;;;;;12.93;9.20;;;6.50;1.00;;;;;;5032634;28;20043;-62
2022/12/11 05:11:52;;;;;;;9.17;7.23;;;6.50;1.00;;;;;;5021597;28;20022;-63
2022/12/11 05:14:18;;;;;;;10.50;8.13;;;6.50;1.00;;;;;;5029131;28;20521;-63
2022/12/11 05:16:44;;;;;;;9.67;7.67;;;6.50;1.00;;;;;;5026203;28;20061;-62
2022/12/11 05:19:09;;;;;;;11.73;8.30;;;6.60;1.00;;;;;;5032576;28;20032;-63
2022/12/11 05:21:35;;;;;;;10.50;7.67;;;6.60;1.00;;;;;;5031819;28;20064;-63
2022/12/11 05:24:01;;;;;;;9.20;7.37;;;6.60;1.00;;;;;;5012750;28;20107;-63
2022/12/11 05:26:26;;;;;;;8.50;7.33;;;6.60;1.00;;;;;;5022094;28;20021;-63
2022/12/11 05:28:54;;;;;;;8.23;6.67;;;6.70;1.00;;;;;;5021295;28;20518;-63
2022/12/11 05:31:22;;;;;;;8.60;6.13;;;6.70;1.00;;;;;;5029435;28;20051;-63
2022/12/11 05:33:49;;;;;;;9.47;7.50;;;6.70;1.00;;;;;;5032190;28;20100;-63
2022/12/11 05:36:22;;;;;;;8.83;6.47;;;6.70;1.00;;;;;;5032369;28;20478;-63
2022/12/11 05:38:48;;;;;;;7.57;5.70;;;6.70;1.00;;;;;;5032135;28;20044;-63
2022/12/11 05:41:16;;;;;;;8.57;6.33;;;6.80;1.00;;;;;;5030024;28;20081;-63
2022/12/11 05:43:42;;;;;;;8.27;6.23;;;6.80;1.00;;;;;;5032124;28;20480;-63
2022/12/11 05:46:14;;;;;;;7.03;6.00;;;6.70;1.00;;;;;;5032144;28;20064;-63
2022/12/11 05:48:41;;;;;;;6.80;5.60;;;6.80;1.00;;;;;;5025987;28;20030;-63
2022/12/11 05:51:08;;;;;;;7.60;4.80;;;6.80;1.00;;;;;;5011994;28;20109;-62
2022/12/11 05:53:35;;;;;;;8.30;4.87;;;6.80;1.00;;;;;;5030098;28;20025;-62
2022/12/11 05:56:03;;;;;;;5.20;4.17;;;6.80;1.00;;;;;;5026031;28;20076;-63
2022/12/11 05:58:29;;;;;;;3.80;2.93;;;6.70;1.00;;;;;;5024200;28;20066;-63
2022/12/11 06:00:54;;;;;;;3.50;2.83;;;6.70;1.00;;;;;;5024090;28;20080;-63
2022/12/11 06:03:20;;;;;;;2.43;2.20;;;6.80;1.00;;;;;;5020943;28;20034;-62
2022/12/11 06:05:46;;;;;;;3.67;2.30;;;6.80;1.00;;;;;;5031797;28;20475;-62
2022/12/11 06:08:11;;;;;;;2.53;1.90;;;6.80;1.00;;;;;;5032067;28;20021;-63
2022/12/11 06:10:37;;;;;;;2.20;2.00;;;6.60;1.00;;;;;;5031653;28;20340;-63
2022/12/11 06:13:03;;;;;;;2.13;1.90;;;6.70;1.00;;;;;;5030338;28;20053;-63
2022/12/11 06:15:28;;;;;;;1.57;1.47;;;6.70;1.00;;;;;;5026043;28;20042;-62
2022/12/11 06:17:54;;;;;;;3.20;1.40;;;6.70;1.00;;;;;;5030038;28;20025;-62
2022/12/11 06:20:20;;;;;;;1.33;1.20;;;6.70;1.00;;;;;;5031482;28;20040;-62
2022/12/11 06:22:45;;;;;;;1.50;1.10;;;6.70;1.00;;;;;;5033474;28;20026;-62
2022/12/11 06:25:11;;;;;;;1.20;0.87;;;6.70;1.00;;;;;;5038398;28;20493;-62
2022/12/11 06:27:37;;;;;;;3.30;1.00;;;6.70;1.00;;;;;;5032622;28;20365;-63
2022/12/11 06:30:02;;;;;;;0.83;0.80;;;6.60;1.00;;;;;;5038115;28;20037;-62
2022/12/11 06:32:28;;;;;;;2.03;1.30;;;6.60;1.00;;;;;;5038049;28;20030;-62
2022/12/11 06:34:54;;;;;;;1.10;1.00;;;6.60;1.00;;;;;;5038112;28;20132;-63
2022/12/11 06:37:20;;;;;;;1.10;1.00;;;6.60;1.00;;;;;;5022951;28;20118;-62
2022/12/11 06:39:45;;;;;;;1.03;0.70;;;6.60;1.00;;;;;;5016674;28;20034;-63
2022/12/11 06:42:12;;;;;;;2.27;1.10;;;6.60;1.00;;;;;;5035203;28;20049;-63
2022/12/11 06:44:44;;;;;;;1.03;0.90;;;6.50;1.00;;;;;;5023924;28;20483;-62
2022/12/11 06:47:09;;;;;;;2.33;1.10;;;6.60;1.00;;;;;;5038193;28;20048;-62
2022/12/11 06:49:35;;;;;;;1.00;0.63;;;6.60;1.00;;;;;;5024398;28;20369;-63
2022/12/11 06:52:01;;;;;;;0.93;0.80;;;6.60;1.00;;;;;;5037506;28;20107;-63
2022/12/11 06:54:27;;;;;;;0.90;0.80;;;6.60;1.00;;;;;;5038006;28;20395;-63
2022/12/11 06:56:53;;;;;;;0.97;0.80;;;6.60;1.00;;;;;;5018189;28;20484;-63
2022/12/11 06:59:18;;;;;;;1.57;1.00;;;6.60;1.00;;;;;;5028894;28;20036;-62
2022/12/11 07:01:44;;;;;;;1.07;0.70;;;6.50;1.00;;;;;;5035924;28;20387;-63
2022/12/11 07:04:10;;;;;;;1.17;1.00;;;6.60;1.00;;;;;;5025779;28;20030;-63
2022/12/11 07:06:35;;;;;;;1.97;0.60;;;6.60;1.00;;;;;;5038232;28;20030;-63
2022/12/11 07:09:04;;;;;;;1.30;1.20;;;6.60;1.00;;;;;;5023849;28;20029;-62
2022/12/11 07:11:30;;;;;;;0.83;0.63;;;6.60;1.00;;;;;;5038217;28;20435;-63
2022/12/11 07:13:59;;;;;;;0.77;0.77;;;6.60;1.00;;;;;;5033239;28;20109;-63
2022/12/11 07:16:25;;;;;;;1.13;0.60;;;6.60;1.00;;;;;;5037879;28;20136;-63
2022/12/11 07:18:51;;;;;;;1.30;0.73;;;6.60;1.00;;;;;;5023880;28;20096;-63
2022/12/11 07:21:18;;;;;;;0.80;0.67;;;6.60;1.00;;;;;;5037833;28;20057;-63
2022/12/11 07:23:44;;;;;;;0.90;0.67;;;6.60;1.00;;;;;;5037557;28;20036;-63
2022/12/11 07:26:13;;;;;;;0.70;0.57;;;6.60;1.00;;;;;;5030783;28;20025;-63
2022/12/11 07:28:39;;;;;;;1.73;0.90;;;6.60;1.00;;;;;;5021747;28;20029;-63
2022/12/11 07:31:10;;;;;;;0.90;0.60;;;6.70;1.00;;;;;;5031462;28;20029;-63
2022/12/11 07:33:36;;;;;;;0.70;0.60;;;6.60;1.00;;;;;;5037559;28;20032;-63
2022/12/11 07:36:04;;;;;;;1.13;0.73;;;6.60;1.00;;;;;;5034642;28;20440;-63
2022/12/11 07:38:29;;;;;;;1.90;0.50;;;6.60;1.00;;;;;;5034355;28;20459;-62
2022/12/11 07:40:55;;;;;;;2.07;0.43;;;6.60;1.00;;;;;;5028439;28;20061;-61
2022/12/11 07:43:21;;;;;;;1.00;0.80;;;6.70;1.00;;;;;;5032598;28;20021;-62
2022/12/11 07:45:46;;;;;;;0.83;0.57;;;6.70;1.00;;;;;;5034226;28;20041;-62
2022/12/11 07:48:12;;;;;;;1.33;0.73;;;6.60;1.00;;;;;;5034155;28;20030;-64
2022/12/11 07:50:38;;;;;;;2.57;0.60;;;6.70;1.00;;;;;;5034220;28;20021;-62
2022/12/11 07:53:03;;;;;;;5.73;1.00;;;6.70;1.00;;;;;;5034049;28;20105;-62
2022/12/11 07:55:30;;;;;;;3.63;0.73;;;6.70;1.00;;;;;;5027800;28;20045;-62
2022/12/11 07:57:56;;;;;;;3.57;0.90;;;6.80;1.00;;;;;;5022433;28;20034;-62
2022/12/11 08:00:22;;;;;;;13.87;2.13;;;6.90;1.00;;;;;;5033964;28;20063;-62
2022/12/11 08:02:47;;;;;;;12.27;1.87;;;7.00;1.00;;;;;;5033964;28;20053;-62
2022/12/11 08:05:13;;;;;;;5.20;1.07;;;7.10;1.00;;;;;;5032691;28;20119;-62
2022/12/11 08:07:38;;;;;;;7.73;0.90;;;7.10;1.00;;;;;;5034017;28;20018;-62
2022/12/11 08:10:04;;;;;;;9.37;2.00;;;7.10;1.00;;;;;;5030592;28;20030;-62
2022/12/11 08:12:30;;;;;;;12.80;2.07;;;7.00;1.00;;;;;;5029519;28;20033;-62
2022/12/11 08:14:56;;;;;;;5.47;1.13;;;7.00;1.00;;;;;;5034068;28;20364;-62
2022/12/11 08:17:21;;;;;;;0.80;0.70;;;7.10;1.00;;;;;;5033808;28;20083;-62
2022/12/11 08:19:47;;;;;;;3.17;0.90;;;7.20;1.00;;;;;;5029831;28;20036;-62
2022/12/11 08:22:13;;;;;;;1.53;0.80;;;7.20;1.00;;;;;;5014831;28;20033;-62
2022/12/11 08:24:39;;;;;;;0.70;0.57;;;7.20;1.00;;;;;;5017331;28;20135;-62
2022/12/11 08:27:05;;;;;;;0.87;0.43;;;7.10;1.00;;;;;;5012215;28;20112;-62
2022/12/11 08:29:31;;;;;;;0.53;0.47;;;7.10;1.00;;;;;;5011939;28;20018;-62
2022/12/11 08:31:56;;;;;;;1.50;0.60;;;7.20;1.00;;;;;;5013390;28;20079;-63
2022/12/11 08:34:22;;;;;;;0.70;0.40;;;7.20;1.00;;;;;;5025900;28;20136;-62
2022/12/11 08:36:48;;;;;;;0.80;0.63;;;7.40;1.00;;;;;;5024414;28;20086;-62
2022/12/11 08:39:13;;;;;;;1.23;0.93;;;7.40;1.00;;;;;;5033283;28;20022;-63
2022/12/11 08:41:39;;;;;;;1.27;0.83;;;7.40;1.00;;;;;;5033656;28;20037;-62
2022/12/11 08:44:13;;;;;;;3.93;1.20;;;7.50;1.00;;;;;;5033216;28;20025;-62
2022/12/11 08:46:38;;;;;;;2.47;1.03;;;7.50;1.00;;;;;;5019796;28;20361;-62
2022/12/11 08:49:04;;;;;;;2.73;0.97;;;7.50;1.00;;;;;;5031624;28;20083;-62
2022/12/11 08:51:33;;;;;;;0.97;0.70;;;7.50;1.00;;;;;;5033039;28;20068;-62
2022/12/11 08:53:59;;;;;;;1.00;0.60;;;7.50;1.00;;;;;;5031500;28;20124;-62
2022/12/11 08:56:26;;;;;;;1.37;0.80;;;7.50;1.00;;;;;;5014895;28;20045;-62
2022/12/11 08:58:52;;;;;;;1.87;0.70;;;7.50;1.00;;;;;;5032960;28;20022;-62
2022/12/11 09:01:25;;;;;;;0.90;0.80;;;7.50;1.00;;;;;;5026517;28;20132;-62
2022/12/11 09:03:53;;;;;;;1.03;0.77;;;7.40;1.00;;;;;;5019114;28;20033;-62
2022/12/11 09:06:21;;;;;;;1.20;0.73;;;7.30;1.00;;;;;;5005379;28;20021;-62
2022/12/11 09:08:48;;;;;;;3.77;1.00;;;7.40;1.00;;;;;;5032609;28;20021;-62
2022/12/11 09:11:24;;;;;;;3.10;1.10;;;7.40;1.00;;;;;;5032885;28;20206;-63
2022/12/11 09:13:50;;;;;;;1.27;0.63;;;7.40;1.00;;;;;;5021670;28;20014;-63
2022/12/11 09:16:17;;;;;;;1.40;0.90;;;7.40;1.00;;;;;;5026694;28;20072;-62
2022/12/11 09:18:46;;;;;;;1.70;0.90;;;7.30;1.00;;;;;;5011302;28;20022;-62
2022/12/11 09:21:13;;;;;;;4.10;0.97;;;7.30;1.00;;;;;;5008814;28;20481;-62
2022/12/11 09:23:40;;;;;;;2.27;1.03;;;7.30;1.00;;;;;;5032608;28;20026;-62
2022/12/11 09:26:09;;;;;;;1.87;1.00;;;7.30;1.00;;;;;;5027836;28;20022;-62
2022/12/11 09:28:35;;;;;;;10.43;2.70;;;7.30;1.00;;;;;;5012829;28;20037;-62
2022/12/11 09:31:08;;;;;;;3.03;1.03;;;7.40;1.00;;;;;;5029389;28;20021;-62
2022/12/11 09:33:34;;;;;;;4.00;2.00;;;7.40;1.00;;;;;;5032505;28;20025;-62
2022/12/11 09:36:01;;;;;;;2.07;1.30;;;7.40;1.00;;;;;;5032372;28;20049;-62
2022/12/11 09:38:27;;;;;;;2.50;0.90;;;7.40;1.00;;;;;;5018291;28;20058;-62
2022/12/11 09:40:53;;;;;;;3.23;1.37;;;7.30;1.00;;;;;;5032323;28;20040;-62
2022/12/11 09:43:35;;;;;;;2.03;1.33;;;7.30;1.00;;;;;;5022849;28;20380;-62
2022/12/11 09:46:08;;;;;;;1.60;1.27;;;7.30;1.00;;;;;;5032126;28;20152;-62
2022/12/11 09:48:35;;;;;;;1.80;1.30;;;7.30;1.00;;;;;;5031921;28;20044;-62
2022/12/11 09:51:10;;;;;;;2.13;1.33;;;7.40;1.00;;;;;;5031752;28;20025;-62
2022/12/11 09:53:37;;;;;;;;;;;7.30;1.00;;;;;;5031144;28;20025;-62
2022/12/11 09:56:08;;;;;;;2.00;1.00;;;7.30;1.00;;;;;;5031982;28;20009;-62
2022/12/11 09:59:19;;;;;;;2.70;1.33;;;7.40;1.00;;;;;;5016657;28;20101;-62
2022/12/11 10:01:49;;;;;;;1.70;1.10;;;7.40;1.00;;;;;;5029915;28;20038;-62
2022/12/11 10:04:24;;;;;;;2.57;1.23;;;7.50;1.00;;;;;;5018127;28;20029;-62
2022/12/11 10:07:14;;;;;;;5.05;1.42;;;7.50;1.00;;;;;;5031538;28;20030;-62
2022/12/11 10:09:40;;;;;;;1.93;1.27;;;7.50;1.00;;;;;;5020037;28;20495;-62
2022/12/11 10:12:44;;;;;;;5.70;2.23;;;7.60;1.00;;;;;;5031694;28;20126;-62
2022/12/11 10:15:24;;;;;;;3.73;2.40;;;7.50;1.00;;;;;;5031692;28;20041;-62
2022/12/11 10:17:52;;;;;;;3.73;3.07;;;7.60;1.00;;;;;;5031810;28;20052;-62
2022/12/11 10:20:30;;;;;;;4.40;4.00;;;7.60;1.00;;;;;;5031589;28;20118;-63
2022/12/11 10:22:59;;;;;;;5.90;4.50;;;7.60;1.00;;;;;;5028108;28;20052;-63
2022/12/11 10:25:33;;;;;;;6.97;5.37;;;7.70;1.00;;;;;;5031898;28;20108;-63
2022/12/11 10:28:09;;;;;;;8.60;7.77;;;7.70;1.00;;;;;;5019885;28;20156;-63
2022/12/11 10:30:42;;;;;;;11.27;8.93;;;7.70;1.00;;;;;;5029380;28;20467;-63
2022/12/11 10:34:04;;;;;;;12.27;9.43;;;7.70;1.00;;;;;;5018684;28;20599;-63
2022/12/11 10:36:33;;;;;;;9.37;7.63;;;7.60;1.00;;;;;;4961860;28;20079;-63
2022/12/11 10:38:59;;;;;;;9.47;8.27;;;7.70;1.00;;;;;;5016945;28;20045;-63
2022/12/11 10:41:51;;;;;;;8.07;7.27;;;7.70;1.00;;;;;;5031736;28;20181;-63
2022/12/11 10:44:18;;;;;;;8.07;6.60;;;7.70;1.00;;;;;;5011276;28;20416;-63
2022/12/11 10:46:46;;;;;;;9.43;6.60;;;7.70;1.00;;;;;;5031251;28;20018;-62
2022/12/11 10:49:26;;;;;;;13.40;9.80;;;7.70;1.00;;;;;;5026568;28;20026;-63
2022/12/11 10:51:53;;;;;;;10.50;7.53;;;7.70;1.00;;;;;;5027124;28;20014;-63
2022/12/11 10:54:28;;;;;;;12.53;8.77;;;7.70;1.00;;;;;;5031209;28;20060;-62
2022/12/11 10:56:54;;;;;;;;;;;7.70;1.00;;;;;;5031651;28;20068;-63
2022/12/11 10:59:31;;;;;;;12.95;7.35;;;7.70;1.00;;;;;;5028538;28;20093;-63
2022/12/11 11:01:57;;;;;;;10.03;7.90;;;7.70;1.00;;;;;;5026450;28;20021;-63
2022/12/11 11:04:32;;;;;;;12.40;8.40;;;7.70;1.00;;;;;;5029931;28;20032;-63
2022/12/11 11:07:48;;;;;;;11.27;8.82;;;7.70;1.00;;;;;;5031174;28;20021;-63
2022/12/11 11:10:59;;;;;;;9.67;8.20;;;7.70;1.00;;;;;;5022981;28;20172;-63
2022/12/11 11:13:30;;;;;;;12.27;9.90;;;7.80;1.00;;;;;;5012661;28;20484;-62
2022/12/11 11:19:31;;;;;;;13.20;9.93;;;7.80;1.00;;;;;;5015438;28;20490;-63
2022/12/11 11:22:00;;;;;;;12.37;10.30;;;7.70;1.00;;;;;;5032476;28;20032;-63
2022/12/11 11:24:37;;;;;;;12.67;9.57;;;7.80;1.00;;;;;;5026881;28;20079;-63
2022/12/11 11:27:30;;;;;;;10.63;8.23;;;7.80;1.00;;;;;;5029506;28;20467;-63
2022/12/11 11:30:02;;;;;;;10.50;8.03;;;7.60;1.00;;;;;;5030858;28;20452;-63
2022/12/11 11:32:33;;;;;;;10.30;8.23;;;7.70;1.00;;;;;;5034512;28;20041;-63
2022/12/11 11:35:11;;;;;;;9.70;8.43;;;7.80;1.00;;;;;;5033022;28;20046;-63
2022/12/11 11:37:38;;;;;;;9.83;8.13;;;7.70;1.00;;;;;;5022645;28;20369;-63
2022/12/11 11:40:18;;;;;;;13.30;9.87;;;7.70;1.00;;;;;;5024853;28;20029;-63
2022/12/11 11:43:22;;;;;;;11.10;8.83;;;7.80;1.00;;;;;;5034567;28;20036;-63
2022/12/11 11:46:00;;;;;;;9.40;7.30;;;7.90;1.00;;;;;;5010907;28;20067;-63
2022/12/11 11:48:37;;;;;;;8.30;6.10;;;7.90;1.00;;;;;;5034542;28;20359;-63
2022/12/11 11:51:13;;;;;;;10.80;6.93;;;7.80;1.00;;;;;;5034263;28;20053;-63
2022/12/11 11:53:40;;;;;;;8.70;6.37;;;7.80;1.00;;;;;;5034122;28;20025;-63
2022/12/11 11:56:15;;;;;;;9.07;6.50;;;7.90;1.00;;;;;;5018277;28;20038;-63
2022/12/11 11:58:59;;;;;;;7.82;6.53;;;7.90;1.00;;;;;;5015904;28;20022;-63
2022/12/11 12:01:25;;;;;;;8.98;5.97;;;7.90;1.00;;;;;;5007281;28;20014;-63
2022/12/11 12:03:51;;;;;;;7.47;5.50;;;7.90;1.00;;;;;;5021724;28;20041;-63
2022/12/11 12:06:45;;;;;;;7.32;5.30;;;7.90;1.00;;;;;;5030803;28;20404;-63
2022/12/11 12:12:51;;;;;;;8.53;6.03;;;7.90;1.00;;;;;;5023046;28;20120;-63
2022/12/11 12:15:38;;;;;;;7.57;5.80;;;7.90;1.00;;;;;;5008077;28;20053;-64
2022/12/11 12:18:03;;;;;;;6.17;5.33;;;7.80;1.00;;;;;;5033872;28;20029;-63
2022/12/11 12:20:46;;;;;;;7.23;5.53;;;7.80;1.00;;;;;;5032699;28;20029;-63
2022/12/11 12:23:34;;;;;;;8.07;6.90;;;7.90;1.00;;;;;;5028575;28;20365;-63
2022/12/11 12:26:20;;;;;;;10.07;6.33;;;7.80;1.00;;;;;;5033750;28;20119;-63
2022/12/11 12:28:47;;;;;;;10.47;6.67;;;7.70;1.00;;;;;;5029856;28;20034;-63
2022/12/11 12:31:54;;;;;;;10.00;6.57;;;7.70;1.00;;;;;;5033323;28;20056;-63
2022/12/11 12:34:46;;;;;;;8.43;6.20;;;7.80;1.00;;;;;;5013472;28;20049;-64
2022/12/11 12:37:44;;;;;;;7.20;5.37;;;7.80;1.00;;;;;;5024730;28;20495;-63
2022/12/11 12:40:19;;;;;;;9.20;5.43;;;7.90;1.00;;;;;;5031027;28;20045;-63
2022/12/11 12:42:47;;;;;;;;;;;7.90;1.00;;;;;;5033852;28;20060;-63
2022/12/11 12:45:13;;;;;;;6.60;4.87;;;7.90;1.00;;;;;;5031035;28;19931;-63
2022/12/11 12:47:42;;;;;;;8.80;6.00;;;7.90;1.00;;;;;;5022612;28;20029;-63
2022/12/11 12:50:20;;;;;;;7.57;5.77;;;8.00;1.00;;;;;;5032962;28;20013;-63
2022/12/11 12:52:47;;;;;;;8.70;6.63;;;8.00;1.00;;;;;;5029157;28;20495;-63
2022/12/11 12:55:23;;;;;;;6.00;5.03;;;8.00;1.00;;;;;;5016552;28;20091;-64
2022/12/11 12:57:59;;;;;;;8.33;6.40;;;8.00;1.00;;;;;;5008230;28;20026;-63
2022/12/11 13:00:27;;;;;;;7.73;5.93;;;7.90;1.00;;;;;;5010297;28;20084;-63
2022/12/11 13:02:55;;;;;;;7.70;5.83;;;8.00;1.00;;;;;;5001624;28;20380;-64
2022/12/11 13:05:31;;;;;;;8.50;6.23;;;7.90;1.00;;;;;;4998906;28;20053;-64
2022/12/11 13:08:00;;;;;;;7.67;5.60;;;8.00;1.00;;;;;;5016619;28;20034;-63
2022/12/11 13:10:32;;;;;;;8.20;6.33;;;8.00;1.00;;;;;;5023184;28;20052;-63
2022/12/11 13:12:59;;;;;;;8.10;6.17;;;8.00;1.00;;;;;;5032935;28;20033;-63
2022/12/11 13:15:35;;;;;;;8.00;6.77;;;8.00;1.00;;;;;;5032637;28;20069;-63
2022/12/11 13:18:04;;;;;;;6.90;5.80;;;8.00;1.00;;;;;;5018392;28;20021;-63
2022/12/11 13:20:31;;;;;;;7.50;6.60;;;8.10;1.00;;;;;;5032519;28;20484;-63
2022/12/11 13:23:06;;;;;;;7.90;6.33;;;8.10;1.00;;;;;;5027597;28;20021;-63
2022/12/11 13:25:48;;;;;;;7.43;6.45;;;8.20;1.00;;;;;;5032492;28;20104;-63
2022/12/11 13:28:27;;;;;;;9.53;6.80;;;8.10;1.00;;;;;;5031146;28;20365;-63
2022/12/11 13:31:16;;;;;;;13.40;8.70;;;8.10;1.00;;;;;;5032124;28;20033;-63
2022/12/11 13:33:52;;;;;;;10.83;7.23;;;8.00;1.00;;;;;;5011465;28;20042;-63
2022/12/11 13:36:17;;;;;;;11.47;7.50;;;8.10;1.00;;;;;;5026236;28;20472;-63